createdAt,value
2019-05-19T00:00:31.491Z,94950.91
2019-05-19T00:02:59.980Z,94948.25
2019-05-19T00:05:28.440Z,94942.52
2019-05-19T00:07:56.965Z,94947.44
2019-05-19T00:10:25.356Z,94942.20
2019-05-19T00:12:53.754Z,94941.45
2019-05-19T00:15:22.314Z,94940.19
2019-05-19T00:17:53.090Z,94942.02
2019-05-19T00:20:20.847Z,94937.52
2019-05-19T00:22:49.374Z,94940.19
2019-05-19T00:25:17.786Z,94943.66
2019-05-19T00:27:46.999Z,94933.22
2019-05-19T00:30:15.855Z,94939.89
2019-05-19T00:32:44.252Z,94936.64
2019-05-19T00:35:12.897Z,94939.09
2019-05-19T00:37:41.492Z,94934.28
2019-05-19T00:40:10.237Z,94934.52
2019-05-19T00:42:38.639Z,94939.01
2019-05-19T00:45:08.001Z,94939.31
2019-05-19T00:47:36.642Z,94944.64
2019-05-19T00:50:11.282Z,94943.88
2019-05-19T00:52:39.896Z,94938.33
2019-05-19T00:55:08.531Z,94947.00
2019-05-19T00:57:38.036Z,94941.00
2019-05-19T01:00:08.553Z,94942.21
2019-05-19T01:02:36.903Z,94940.42
2019-05-19T01:05:08.009Z,94941.80
2019-05-19T01:07:37.013Z,94942.83
2019-05-19T01:10:27.930Z,94944.42
2019-05-19T01:12:56.368Z,94939.37
2019-05-19T01:15:24.835Z,94937.86
2019-05-19T01:17:53.234Z,94943.02
2019-05-19T01:20:23.351Z,94940.26
2019-05-19T01:22:51.748Z,94938.80
2019-05-19T01:25:20.281Z,94942.34
2019-05-19T01:27:48.947Z,94944.88
2019-05-19T01:30:19.070Z,94942.84
2019-05-19T01:32:47.546Z,94939.91
2019-05-19T01:35:15.960Z,94942.75
2019-05-19T01:37:44.357Z,94949.58
2019-05-19T01:40:13.192Z,94952.42
2019-05-19T01:42:43.969Z,94946.92
2019-05-19T01:45:12.803Z,94946.61
2019-05-19T01:47:41.202Z,94947.81
2019-05-19T01:50:18.672Z,94959.48
2019-05-19T01:52:40.517Z,94949.80
2019-05-19T01:55:09.362Z,94955.63
2019-05-19T01:57:37.784Z,94953.72
2019-05-19T02:00:08.423Z,94956.95
2019-05-19T02:02:36.812Z,94955.70
2019-05-19T02:05:06.786Z,94953.63
2019-05-19T02:07:35.228Z,94952.30
2019-05-19T02:10:05.423Z,94958.77
2019-05-19T02:12:34.044Z,94959.16
2019-05-19T02:15:03.277Z,94964.61
2019-05-19T02:17:31.681Z,94967.94
2019-05-19T02:20:00.176Z,94967.75
2019-05-19T02:22:28.581Z,94965.69
2019-05-19T02:24:56.993Z,94966.08
2019-05-19T02:27:25.422Z,94972.45
2019-05-19T02:29:53.840Z,94972.56
2019-05-19T02:32:22.316Z,94975.45
2019-05-19T02:34:50.851Z,94974.08
2019-05-19T02:37:19.315Z,94975.51
2019-05-19T02:39:47.718Z,94982.06
2019-05-19T02:42:19.028Z,94983.34
2019-05-19T02:44:49.039Z,94983.49
2019-05-19T02:47:19.370Z,94975.52
2019-05-19T02:49:49.544Z,94983.43
2019-05-19T02:52:19.447Z,94976.13
2019-05-19T02:54:48.120Z,94988.68
2019-05-19T02:57:17.644Z,94977.31
2019-05-19T02:59:46.377Z,94985.56
2019-05-19T03:02:15.150Z,94979.75
2019-05-19T03:04:43.586Z,94979.29
2019-05-19T03:07:11.996Z,94983.95
2019-05-19T03:09:40.376Z,94989.20
2019-05-19T03:12:08.984Z,94989.70
2019-05-19T03:14:37.370Z,94995.48
2019-05-19T03:17:05.764Z,94993.41
2019-05-19T03:19:34.193Z,94995.91
2019-05-19T03:22:02.591Z,94991.47
2019-05-19T03:24:30.988Z,94996.50
2019-05-19T03:26:59.407Z,95002.41
2019-05-19T03:29:32.163Z,95003.31
2019-05-19T03:32:11.819Z,95001.23
2019-05-19T03:34:35.229Z,95004.99
2019-05-19T03:37:03.699Z,95006.38
2019-05-19T03:39:32.279Z,95004.18
2019-05-19T03:42:00.669Z,95010.36
2019-05-19T03:44:29.115Z,95011.77
2019-05-19T03:46:57.532Z,95011.77
2019-05-19T03:49:25.930Z,95014.00
2019-05-19T03:51:54.339Z,95022.47
2019-05-19T03:54:22.799Z,95025.59
2019-05-19T03:56:51.201Z,95025.27
2019-05-19T03:59:19.603Z,95022.91
2019-05-19T04:01:48.185Z,95020.77
2019-05-19T04:04:16.637Z,95022.98
2019-05-19T04:06:44.993Z,95025.16
2019-05-19T04:09:17.152Z,95032.79
2019-05-19T04:11:43.535Z,95029.23
2019-05-19T04:14:11.991Z,95036.84
2019-05-19T04:16:40.428Z,95037.75
2019-05-19T04:19:08.837Z,95036.88
2019-05-19T04:21:48.068Z,95034.02
2019-05-19T04:24:07.563Z,95028.35
2019-05-19T04:26:35.957Z,95031.25
2019-05-19T04:29:04.524Z,95031.52
2019-05-19T04:31:33.211Z,95040.61
2019-05-19T04:34:01.619Z,95043.27
2019-05-19T04:36:29.999Z,95045.13
2019-05-19T04:38:58.446Z,95041.95
2019-05-19T04:41:26.812Z,95041.34
2019-05-19T04:43:55.214Z,95048.33
2019-05-19T04:46:23.650Z,95049.41
2019-05-19T04:48:52.220Z,95053.04
2019-05-19T04:51:20.620Z,95055.20
2019-05-19T04:53:49.052Z,95055.70
2019-05-19T04:56:19.645Z,95051.95
2019-05-19T04:58:47.588Z,95058.55
2019-05-19T05:01:16.026Z,95056.38
2019-05-19T05:03:44.429Z,95050.27
2019-05-19T05:06:12.834Z,95051.44
2019-05-19T05:08:41.272Z,95053.30
2019-05-19T05:11:09.665Z,95056.48
2019-05-19T05:13:38.061Z,95046.65
2019-05-19T05:16:06.474Z,95052.03
2019-05-19T05:18:34.900Z,95050.05
2019-05-19T05:21:03.274Z,95045.76
2019-05-19T05:23:31.714Z,95045.08
2019-05-19T05:26:00.214Z,95048.42
2019-05-19T05:28:28.682Z,95046.14
2019-05-19T05:30:57.180Z,95054.55
2019-05-19T05:33:25.688Z,95056.53
2019-05-19T05:35:54.083Z,95061.48
2019-05-19T05:38:22.685Z,95057.06
2019-05-19T05:40:51.084Z,95055.85
2019-05-19T05:43:19.554Z,95051.42
2019-05-19T05:45:48.339Z,95048.02
2019-05-19T05:48:16.754Z,95049.78
2019-05-19T05:50:45.152Z,95040.30
2019-05-19T05:53:13.580Z,95042.38
2019-05-19T05:55:42.021Z,95045.70
2019-05-19T05:58:10.382Z,95042.30
2019-05-19T06:00:39.013Z,95039.25
2019-05-19T06:03:07.402Z,95043.23
2019-05-19T06:05:35.925Z,95038.05
2019-05-19T06:08:04.564Z,95042.02
2019-05-19T06:10:32.970Z,95035.25
2019-05-19T06:13:01.477Z,95035.97
2019-05-19T06:15:30.137Z,95033.19
2019-05-19T06:17:58.544Z,95035.51
2019-05-19T06:20:27.011Z,95034.67
2019-05-19T06:22:57.170Z,95034.84
2019-05-19T06:25:25.901Z,95032.81
2019-05-19T06:27:54.456Z,95031.83
2019-05-19T06:30:22.948Z,95033.30
2019-05-19T06:32:52.998Z,95040.94
2019-05-19T06:35:21.430Z,95031.73
2019-05-19T06:37:49.886Z,95031.91
2019-05-19T06:40:18.280Z,95024.60
2019-05-19T06:42:46.673Z,95027.73
2019-05-19T06:45:16.419Z,95028.18
2019-05-19T06:47:45.115Z,95022.73
2019-05-19T06:50:14.124Z,95024.45
2019-05-19T06:52:42.645Z,95026.48
2019-05-19T06:55:11.384Z,95031.20
2019-05-19T06:57:39.791Z,95015.62
2019-05-19T07:00:09.153Z,95015.00
2019-05-19T07:02:37.652Z,95016.78
2019-05-19T07:05:07.210Z,95016.36
2019-05-19T07:07:35.628Z,95017.53
2019-05-19T07:10:28.293Z,95022.98
2019-05-19T07:12:56.812Z,95025.72
2019-05-19T07:15:25.215Z,95025.53
2019-05-19T07:17:53.612Z,95023.72
2019-05-19T07:20:22.144Z,95026.00
2019-05-19T07:22:50.548Z,95022.36
2019-05-19T07:25:18.940Z,95018.44
2019-05-19T07:27:47.613Z,95013.70
2019-05-19T07:30:17.151Z,95014.06
2019-05-19T07:32:45.550Z,95022.17
2019-05-19T07:35:14.263Z,95020.94
2019-05-19T07:37:42.665Z,95018.05
2019-05-19T07:40:11.705Z,95019.75
2019-05-19T07:42:40.131Z,95016.87
2019-05-19T07:45:08.966Z,95015.63
2019-05-19T07:47:37.378Z,95014.34
2019-05-19T07:50:06.338Z,95015.53
2019-05-19T07:52:34.856Z,95012.20
2019-05-19T07:55:04.302Z,95012.31
2019-05-19T07:57:32.723Z,95009.23
2019-05-19T08:00:01.122Z,95006.98
2019-05-19T08:02:29.582Z,95008.13
2019-05-19T08:04:58.308Z,95011.13
2019-05-19T08:07:26.710Z,95012.78
2019-05-19T08:09:55.106Z,95008.33
2019-05-19T08:12:23.730Z,95012.76
2019-05-19T08:14:52.138Z,95002.72
2019-05-19T08:17:20.541Z,95008.47
2019-05-19T08:19:48.970Z,95011.77
2019-05-19T08:22:17.375Z,95011.06
2019-05-19T08:24:45.768Z,95010.05
2019-05-19T08:27:14.302Z,95006.59
2019-05-19T08:29:42.703Z,95012.84
2019-05-19T08:32:11.137Z,95008.66
2019-05-19T08:34:39.590Z,95001.99
2019-05-19T08:37:07.996Z,95000.17
2019-05-19T08:39:36.398Z,94999.15
2019-05-19T08:42:05.083Z,94993.89
2019-05-19T08:44:33.482Z,94993.77
2019-05-19T08:47:01.899Z,94996.23
2019-05-19T08:49:30.683Z,94993.05
2019-05-19T08:51:59.096Z,94996.05
2019-05-19T08:54:27.492Z,94989.67
2019-05-19T08:56:56.085Z,94982.47
2019-05-19T08:59:24.486Z,94983.90
2019-05-19T09:01:53.005Z,94981.59
2019-05-19T09:04:21.562Z,94974.88
2019-05-19T09:06:49.983Z,94986.20
2019-05-19T09:09:18.372Z,94975.78
2019-05-19T09:11:47.978Z,94975.52
2019-05-19T09:14:16.647Z,94966.89
2019-05-19T09:16:45.048Z,94962.36
2019-05-19T09:19:13.601Z,94960.21
2019-05-19T09:21:41.994Z,94963.50
2019-05-19T09:24:10.402Z,94962.17
2019-05-19T09:26:38.832Z,94957.36
2019-05-19T09:29:07.294Z,94967.84
2019-05-19T09:31:35.760Z,94961.17
2019-05-19T09:34:04.525Z,94961.19
2019-05-19T09:36:32.943Z,94959.84
2019-05-19T09:39:01.424Z,94956.37
2019-05-19T09:41:29.936Z,94950.98
2019-05-19T09:43:58.344Z,94950.18
2019-05-19T09:46:26.812Z,94941.57
2019-05-19T09:49:13.096Z,94941.57
2019-05-19T09:51:41.528Z,94932.44
2019-05-19T09:54:09.941Z,94932.67
2019-05-19T09:56:38.361Z,94926.19
2019-05-19T09:59:06.832Z,94923.73
2019-05-19T10:01:35.233Z,94923.96
2019-05-19T10:04:07.010Z,94922.61
2019-05-19T10:06:33.921Z,94919.08
2019-05-19T10:09:09.158Z,94916.33
2019-05-19T10:12:09.311Z,94926.55
2019-05-19T10:14:37.768Z,94927.25
2019-05-19T10:17:06.214Z,94918.03
2019-05-19T10:19:34.677Z,94906.75
2019-05-19T10:22:03.144Z,94907.84
2019-05-19T10:24:31.545Z,94905.89
2019-05-19T10:27:00.083Z,94900.46
2019-05-19T10:29:28.597Z,94903.10
2019-05-19T10:31:56.953Z,94902.03
2019-05-19T10:34:25.486Z,94903.32
2019-05-19T10:36:53.885Z,94902.47
2019-05-19T10:39:22.319Z,94903.51
2019-05-19T10:41:50.811Z,94905.05
2019-05-19T10:44:19.258Z,94904.19
2019-05-19T10:46:47.660Z,94900.17
2019-05-19T10:49:16.073Z,94899.06
2019-05-19T10:51:44.474Z,94892.70
2019-05-19T10:54:12.882Z,94890.13
2019-05-19T10:56:41.315Z,94886.48
2019-05-19T10:59:09.717Z,94886.88
2019-05-19T11:01:38.263Z,94883.53
2019-05-19T11:04:06.784Z,94881.95
2019-05-19T11:06:35.180Z,94881.61
2019-05-19T11:09:05.013Z,94877.47
2019-05-19T11:11:33.561Z,94874.16
2019-05-19T11:14:01.963Z,94871.19
2019-05-19T11:16:30.361Z,94867.78
2019-05-19T11:18:58.937Z,94868.02
2019-05-19T11:21:27.478Z,94862.19
2019-05-19T11:23:57.413Z,94856.14
2019-05-19T11:26:25.841Z,94864.41
2019-05-19T11:28:54.239Z,94859.14
2019-05-19T11:31:22.651Z,94853.50
2019-05-19T11:33:51.293Z,94854.34
2019-05-19T11:36:19.761Z,94851.55
2019-05-19T11:38:48.161Z,94849.11
2019-05-19T11:41:16.583Z,94853.30
2019-05-19T11:43:44.993Z,94847.31
2019-05-19T11:46:13.393Z,94848.20
2019-05-19T11:48:41.975Z,94841.69
2019-05-19T11:51:10.372Z,94838.41
2019-05-19T11:53:38.765Z,94832.87
2019-05-19T11:56:11.205Z,94834.06
2019-05-19T11:58:37.528Z,94833.43
2019-05-19T12:01:05.927Z,94830.30
2019-05-19T12:03:34.377Z,94835.42
2019-05-19T12:06:02.793Z,94826.45
2019-05-19T12:08:31.221Z,94828.63
2019-05-19T12:10:59.651Z,94828.61
2019-05-19T12:13:28.129Z,94822.20
2019-05-19T12:15:56.526Z,94822.63
2019-05-19T12:18:25.077Z,94825.18
2019-05-19T12:20:56.528Z,94822.30
2019-05-19T12:23:24.909Z,94827.92
2019-05-19T12:25:53.585Z,94821.91
2019-05-19T12:28:21.988Z,94822.30
2019-05-19T12:30:50.392Z,94814.59
2019-05-19T12:33:18.814Z,94817.81
2019-05-19T12:35:47.212Z,94815.22
2019-05-19T12:38:15.616Z,94823.66
2019-05-19T12:40:44.193Z,94811.56
2019-05-19T12:43:12.669Z,94813.05
2019-05-19T12:45:41.091Z,94806.14
2019-05-19T12:48:09.525Z,94802.95
2019-05-19T12:50:37.922Z,94799.02
2019-05-19T12:53:06.391Z,94803.84
2019-05-19T12:55:34.933Z,94801.20
2019-05-19T12:58:03.343Z,94806.40
2019-05-19T13:00:31.806Z,94801.58
2019-05-19T13:03:00.407Z,94796.05
2019-05-19T13:05:28.793Z,94794.30
2019-05-19T13:07:57.203Z,94793.94
2019-05-19T13:10:25.752Z,94788.40
2019-05-19T13:12:54.222Z,94787.72
2019-05-19T13:15:22.777Z,94782.45
2019-05-19T13:17:51.584Z,94778.98
2019-05-19T13:20:20.213Z,94778.98
2019-05-19T13:22:48.732Z,94781.68
2019-05-19T13:25:17.120Z,94774.13
2019-05-19T13:27:45.715Z,94770.14
2019-05-19T13:30:14.558Z,94770.14
2019-05-19T13:32:46.066Z,94768.38
2019-05-19T13:35:14.529Z,94771.27
2019-05-19T13:37:42.969Z,94766.30
2019-05-19T13:40:12.006Z,94768.13
2019-05-19T13:42:40.398Z,94757.37
2019-05-19T13:45:09.731Z,94752.24
2019-05-19T13:47:38.266Z,94752.24
2019-05-19T13:50:08.470Z,94749.66
2019-05-19T13:52:36.870Z,94749.66
2019-05-19T13:55:07.199Z,94752.77
2019-05-19T13:57:35.765Z,94751.97
2019-05-19T14:00:05.772Z,94761.59
2019-05-19T14:02:34.323Z,94738.64
2019-05-19T14:05:02.725Z,94738.64
2019-05-19T14:07:31.114Z,94745.02
2019-05-19T14:09:59.720Z,94740.20
2019-05-19T14:12:28.111Z,94738.05
2019-05-19T14:14:56.576Z,94740.94
2019-05-19T14:17:25.005Z,94739.62
2019-05-19T14:19:53.400Z,94734.05
2019-05-19T14:22:21.808Z,94738.41
2019-05-19T14:24:50.367Z,94725.87
2019-05-19T14:27:29.659Z,94730.02
2019-05-19T14:29:48.960Z,94720.98
2019-05-19T14:32:17.477Z,94727.09
2019-05-19T14:34:45.949Z,94723.27
2019-05-19T14:37:15.149Z,94722.36
2019-05-19T14:39:43.578Z,94722.36
2019-05-19T14:42:13.622Z,94717.34
2019-05-19T14:44:42.026Z,94712.48
2019-05-19T14:47:10.609Z,94712.48
2019-05-19T14:49:39.009Z,94722.22
2019-05-19T14:52:07.406Z,94723.20
2019-05-19T14:54:35.825Z,94727.77
2019-05-19T14:57:04.224Z,94725.41
2019-05-19T14:59:32.609Z,94716.93
2019-05-19T15:02:01.255Z,94719.81
2019-05-19T15:04:29.663Z,94719.91
2019-05-19T15:06:58.053Z,94718.06
2019-05-19T15:09:26.482Z,94714.10
2019-05-19T15:11:54.887Z,94717.17
2019-05-19T15:14:23.285Z,94707.27
2019-05-19T15:16:51.869Z,94709.47
2019-05-19T15:19:20.277Z,94711.98
2019-05-19T15:21:48.677Z,94712.64
2019-05-19T15:24:17.212Z,94712.66
2019-05-19T15:26:45.605Z,94712.26
2019-05-19T15:29:14.044Z,94717.97
2019-05-19T15:31:42.666Z,94711.80
2019-05-19T15:34:11.073Z,94717.00
2019-05-19T15:36:39.502Z,94716.50
2019-05-19T15:39:08.097Z,94714.85
2019-05-19T15:41:36.506Z,94711.68
2019-05-19T15:44:05.341Z,94713.95
2019-05-19T15:46:33.949Z,94713.73
2019-05-19T15:49:02.349Z,94716.30
2019-05-19T15:51:37.104Z,94708.27
2019-05-19T15:54:00.922Z,94707.53
2019-05-19T15:56:29.343Z,94713.47
2019-05-19T15:58:57.747Z,94721.09
2019-05-19T16:01:26.477Z,94722.49
2019-05-19T16:03:54.879Z,94722.05
2019-05-19T16:06:23.288Z,94728.13
2019-05-19T16:08:51.876Z,94725.53
2019-05-19T16:11:20.281Z,94720.91
2019-05-19T16:13:48.708Z,94732.27
2019-05-19T16:16:17.105Z,94726.48
2019-05-19T16:18:45.515Z,94729.94
2019-05-19T16:21:13.929Z,94730.52
2019-05-19T16:23:42.524Z,94742.36
2019-05-19T16:26:10.931Z,94748.50
2019-05-19T16:28:39.397Z,94762.72
2019-05-19T16:31:08.271Z,94767.22
2019-05-19T16:33:38.318Z,94777.95
2019-05-19T16:36:07.976Z,94775.24
2019-05-19T16:38:36.635Z,94788.39
2019-05-19T16:41:05.044Z,94779.11
2019-05-19T16:43:33.497Z,94789.45
2019-05-19T16:46:01.921Z,94786.28
2019-05-19T16:48:30.815Z,94787.13
2019-05-19T16:50:59.242Z,94805.75
2019-05-19T16:53:28.179Z,94811.45
2019-05-19T16:55:56.576Z,94832.44
2019-05-19T16:58:24.975Z,94841.86
2019-05-19T17:00:53.527Z,94858.73
2019-05-19T17:03:22.301Z,94852.79
2019-05-19T17:05:50.990Z,94853.50
2019-05-19T17:08:20.084Z,94850.61
2019-05-19T17:10:48.763Z,94852.38
2019-05-19T17:13:17.670Z,94842.89
2019-05-19T17:15:46.481Z,94837.83
2019-05-19T17:18:14.885Z,94833.02
2019-05-19T17:20:43.293Z,94821.58
2019-05-19T17:23:11.712Z,94825.16
2019-05-19T17:25:40.119Z,94823.07
2019-05-19T17:28:08.530Z,94840.06
2019-05-19T17:30:37.160Z,94871.22
2019-05-19T17:33:05.553Z,94884.83
2019-05-19T17:35:34.031Z,94889.56
2019-05-19T17:38:02.586Z,94875.30
2019-05-19T17:40:31.259Z,94878.06
2019-05-19T17:42:59.755Z,94879.99
2019-05-19T17:45:28.329Z,94878.36
2019-05-19T17:48:09.094Z,94870.16
2019-05-19T17:50:32.950Z,94846.30
2019-05-19T17:53:01.954Z,94838.86
2019-05-19T17:55:31.547Z,94845.23
2019-05-19T17:58:01.495Z,94857.40
2019-05-19T18:00:38.616Z,94853.50
2019-05-19T18:03:07.668Z,94851.02
2019-05-19T18:05:36.652Z,94846.60
2019-05-19T18:08:06.312Z,94842.83
2019-05-19T18:10:35.491Z,94839.70
2019-05-19T18:13:04.234Z,94840.30
2019-05-19T18:15:32.628Z,94836.05
2019-05-19T18:18:01.342Z,94838.01
2019-05-19T18:20:29.773Z,94840.17
2019-05-19T18:22:58.690Z,94843.14
2019-05-19T18:25:27.685Z,94834.06
2019-05-19T18:27:56.763Z,94836.44
2019-05-19T18:30:25.668Z,94831.63
2019-05-19T18:32:54.762Z,94837.50
2019-05-19T18:35:23.646Z,94833.89
2019-05-19T18:37:52.546Z,94831.39
2019-05-19T18:40:21.746Z,94831.54
2019-05-19T18:42:50.632Z,94830.95
2019-05-19T18:45:19.648Z,94827.91
2019-05-19T18:47:48.828Z,94827.14
2019-05-19T18:50:18.030Z,94822.73
2019-05-19T18:52:46.907Z,94828.96
2019-05-19T18:55:17.639Z,94829.77
2019-05-19T18:57:46.538Z,94836.14
2019-05-19T19:00:18.396Z,94841.42
2019-05-19T19:02:48.092Z,94845.91
2019-05-19T19:05:17.198Z,94850.91
2019-05-19T19:07:50.291Z,94850.84
2019-05-19T19:10:19.274Z,94853.25
2019-05-19T19:12:49.510Z,94859.93
2019-05-19T19:15:18.395Z,94862.88
2019-05-19T19:17:47.704Z,94864.47
2019-05-19T19:20:16.892Z,94863.05
2019-05-19T19:22:45.784Z,94861.20
2019-05-19T19:25:14.874Z,94865.87
2019-05-19T19:27:43.775Z,94864.64
2019-05-19T19:30:12.997Z,94857.88
2019-05-19T19:32:42.164Z,94862.88
2019-05-19T19:35:11.369Z,94858.92
2019-05-19T19:37:40.254Z,94867.71
2019-05-19T19:40:09.276Z,94868.12
2019-05-19T19:42:38.141Z,94871.27
2019-05-19T19:45:07.365Z,94880.14
2019-05-19T19:47:36.677Z,94888.52
2019-05-19T19:50:07.059Z,94905.49
2019-05-19T19:52:35.951Z,94900.27
2019-05-19T19:55:06.601Z,94911.84
2019-05-19T19:57:35.473Z,94908.16
2019-05-19T20:00:17.212Z,94901.84
2019-05-19T20:02:36.429Z,94904.56
2019-05-19T20:05:06.534Z,94906.05
2019-05-19T20:07:35.418Z,94905.91
2019-05-19T20:10:05.934Z,94912.88
2019-05-19T20:12:34.428Z,94915.39
2019-05-19T20:15:02.936Z,94924.61
2019-05-19T20:17:31.501Z,94925.81
2019-05-19T20:19:59.908Z,94933.26
2019-05-19T20:22:28.306Z,94935.06
2019-05-19T20:24:57.014Z,94944.20
2019-05-19T20:27:25.468Z,94953.72
2019-05-19T20:29:53.974Z,94946.94
2019-05-19T20:32:23.076Z,94946.14
2019-05-19T20:34:51.474Z,94948.71
2019-05-19T20:37:19.870Z,94943.38
2019-05-19T20:39:48.549Z,94938.89
2019-05-19T20:42:16.942Z,94942.56
2019-05-19T20:44:45.408Z,94944.38
2019-05-19T20:47:14.201Z,94941.40
2019-05-19T20:49:42.594Z,94945.67
2019-05-19T20:52:11.003Z,94949.08
2019-05-19T20:54:39.434Z,94948.20
2019-05-19T20:57:07.836Z,94943.30
2019-05-19T20:59:36.236Z,94949.57
2019-05-19T21:02:04.668Z,94947.03
2019-05-19T21:04:33.076Z,94946.62
2019-05-19T21:07:01.495Z,94943.57
2019-05-19T21:09:29.923Z,94943.27
2019-05-19T21:11:58.333Z,94935.92
2019-05-19T21:14:26.731Z,94936.41
2019-05-19T21:16:55.158Z,94936.03
2019-05-19T21:19:23.573Z,94935.50
2019-05-19T21:21:51.966Z,94932.87
2019-05-19T21:24:20.398Z,94933.75
2019-05-19T21:26:48.794Z,94929.11
2019-05-19T21:29:17.191Z,94922.29
2019-05-19T21:31:45.620Z,94919.55
2019-05-19T21:34:14.012Z,94918.44
2019-05-19T21:36:42.434Z,94919.24
2019-05-19T21:39:10.860Z,94916.34
2019-05-19T21:41:40.524Z,94917.91
2019-05-19T21:44:08.860Z,94914.33
2019-05-19T21:46:38.658Z,94914.02
2019-05-19T21:49:07.048Z,94914.86
2019-05-19T21:51:35.446Z,94912.30
2019-05-19T21:54:04.436Z,94915.16
2019-05-19T21:56:32.836Z,94915.07
2019-05-19T21:59:01.318Z,94913.17
2019-05-19T22:01:29.950Z,94908.11
2019-05-19T22:03:58.346Z,94909.31
2019-05-19T22:06:28.394Z,94908.55
2019-05-19T22:08:59.171Z,94907.78
2019-05-19T22:11:27.572Z,94906.98
2019-05-19T22:13:56.040Z,94900.47
2019-05-19T22:16:26.765Z,94902.30
2019-05-19T22:18:55.184Z,94906.27
2019-05-19T22:21:23.582Z,94904.30
2019-05-19T22:23:52.374Z,94908.03
2019-05-19T22:26:20.794Z,94903.73
2019-05-19T22:28:49.182Z,94894.58
2019-05-19T22:31:17.754Z,94898.67
2019-05-19T22:33:46.155Z,94895.62
2019-05-19T22:36:14.555Z,94895.84
2019-05-19T22:38:42.986Z,94897.14
2019-05-19T22:41:11.426Z,94892.91
2019-05-19T22:43:39.833Z,94896.38
2019-05-19T22:46:08.258Z,94902.02
2019-05-19T22:48:36.728Z,94905.06
2019-05-19T22:51:05.126Z,94910.81
2019-05-19T22:53:33.566Z,94907.69
2019-05-19T22:56:02.009Z,94907.16
2019-05-19T22:58:30.390Z,94906.89
2019-05-19T23:00:59.348Z,94915.81
2019-05-19T23:03:27.745Z,94906.44
2019-05-19T23:05:56.143Z,94906.20
2019-05-19T23:08:25.372Z,94915.63
2019-05-19T23:10:53.786Z,94921.06
2019-05-19T23:13:22.183Z,94912.11
2019-05-19T23:15:51.276Z,94913.25
2019-05-19T23:18:19.673Z,94910.41
2019-05-19T23:20:48.074Z,94913.92
2019-05-19T23:23:16.498Z,94910.45
2019-05-19T23:25:44.900Z,94906.31
2019-05-19T23:28:13.474Z,94912.64
2019-05-19T23:30:42.424Z,94913.20
2019-05-19T23:33:10.820Z,94913.02
2019-05-19T23:35:39.264Z,94917.92
2019-05-19T23:38:07.681Z,94923.30
2019-05-19T23:40:36.127Z,94924.17
2019-05-19T23:43:04.508Z,94928.20
2019-05-19T23:45:33.948Z,94937.28
2019-05-19T23:48:02.324Z,94938.27
2019-05-19T23:50:30.726Z,94939.61
2019-05-19T23:52:59.975Z,94942.05
2019-05-19T23:55:28.360Z,94944.18
2019-05-19T23:57:56.754Z,94939.95
